Lima, Peru
Current Conditions -  °F | °C
As of 6:00 PM on Saturday 25 Oct 2014 (Local Time) from SPIM Reporting Station
Broken Clouds Broken Clouds  
Wind Chill: 66°   Ceiling: 13000
Heat Index: 66°   Visibility: 6mi
Dew Point: 57°   Wind: 9mph
Humidity: 73%   Direction: 170°S
Pressure: 29.94"   Gusts: NA
Location:  12.07°S, 77.05°W
Report Text: SPIM 252300Z 17008KT 9999 BKN130 19/14 Q1014 NOSIG RMK PP000
Loading
Personal Weather Stations






























Interactive Weather Map
Tropical Storm Tracking
New forecast layout! Learn more

10-Day Weather Forecast

Advertisements
Track Severe Weather on mobile